sensor_id;sensor_type;location;lat;lon;timestamp;P1;durP1;ratioP1;P2;durP2;ratioP2
16667;SDS011;8447;52.630;4.734;2023-03-01T00:02:02;7.73;;;6.00;;
16667;SDS011;8447;52.630;4.734;2023-03-01T00:04:29;7.63;;;5.37;;
16667;SDS011;8447;52.630;4.734;2023-03-01T00:06:55;9.77;;;5.07;;
16667;SDS011;8447;52.630;4.734;2023-03-01T00:09:23;7.70;;;5.80;;
16667;SDS011;8447;52.630;4.734;2023-03-01T00:11:50;7.90;;;6.00;;
16667;SDS011;8447;52.630;4.734;2023-03-01T00:14:16;6.97;;;4.87;;
16667;SDS011;8447;52.630;4.734;2023-03-01T00:16:43;8.63;;;5.40;;
16667;SDS011;8447;52.630;4.734;2023-03-01T00:19:12;7.63;;;5.20;;
16667;SDS011;8447;52.630;4.734;2023-03-01T00:21:39;9.17;;;5.80;;
16667;SDS011;8447;52.630;4.734;2023-03-01T00:24:06;7.87;;;5.00;;
16667;SDS011;8447;52.630;4.734;2023-03-01T00:26:33;7.47;;;5.63;;
16667;SDS011;8447;52.630;4.734;2023-03-01T00:29:00;5.27;;;4.17;;
16667;SDS011;8447;52.630;4.734;2023-03-01T00:31:27;6.63;;;4.90;;
16667;SDS011;8447;52.630;4.734;2023-03-01T00:33:55;8.27;;;5.27;;
16667;SDS011;8447;52.630;4.734;2023-03-01T00:36:22;6.87;;;5.20;;
16667;SDS011;8447;52.630;4.734;2023-03-01T00:38:49;6.63;;;5.60;;
16667;SDS011;8447;52.630;4.734;2023-03-01T00:41:16;6.97;;;5.10;;
16667;SDS011;8447;52.630;4.734;2023-03-01T00:43:44;9.03;;;5.43;;
16667;SDS011;8447;52.630;4.734;2023-03-01T00:46:11;5.47;;;4.37;;
16667;SDS011;8447;52.630;4.734;2023-03-01T00:48:38;7.00;;;5.13;;
16667;SDS011;8447;52.630;4.734;2023-03-01T00:51:05;7.50;;;5.53;;
16667;SDS011;8447;52.630;4.734;2023-03-01T00:53:32;8.30;;;5.50;;
16667;SDS011;8447;52.630;4.734;2023-03-01T00:55:58;5.97;;;5.10;;
16667;SDS011;8447;52.630;4.734;2023-03-01T00:58:24;6.63;;;5.00;;
16667;SDS011;8447;52.630;4.734;2023-03-01T01:00:52;7.40;;;5.17;;
16667;SDS011;8447;52.630;4.734;2023-03-01T01:03:19;5.97;;;5.00;;
16667;SDS011;8447;52.630;4.734;2023-03-01T01:05:45;6.83;;;5.57;;
16667;SDS011;8447;52.630;4.734;2023-03-01T01:08:12;7.63;;;5.90;;
16667;SDS011;8447;52.630;4.734;2023-03-01T01:10:38;7.60;;;5.47;;
16667;SDS011;8447;52.630;4.734;2023-03-01T01:13:04;7.33;;;5.63;;
16667;SDS011;8447;52.630;4.734;2023-03-01T01:15:32;8.17;;;5.60;;
16667;SDS011;8447;52.630;4.734;2023-03-01T01:18:00;7.17;;;5.57;;
16667;SDS011;8447;52.630;4.734;2023-03-01T01:20:27;11.77;;;5.40;;
16667;SDS011;8447;52.630;4.734;2023-03-01T01:22:53;7.90;;;6.03;;
16667;SDS011;8447;52.630;4.734;2023-03-01T01:25:20;7.67;;;5.33;;
16667;SDS011;8447;52.630;4.734;2023-03-01T01:27:46;9.27;;;5.30;;
16667;SDS011;8447;52.630;4.734;2023-03-01T01:30:13;9.63;;;6.07;;
16667;SDS011;8447;52.630;4.734;2023-03-01T01:32:39;7.53;;;5.90;;
16667;SDS011;8447;52.630;4.734;2023-03-01T01:35:07;7.00;;;5.70;;
16667;SDS011;8447;52.630;4.734;2023-03-01T01:37:34;7.90;;;6.00;;
16667;SDS011;8447;52.630;4.734;2023-03-01T01:40:00;8.90;;;6.07;;
16667;SDS011;8447;52.630;4.734;2023-03-01T01:42:29;6.33;;;5.53;;
16667;SDS011;8447;52.630;4.734;2023-03-01T01:47:40;8.90;;;6.10;;
16667;SDS011;8447;52.630;4.734;2023-03-01T01:50:09;7.63;;;5.43;;
16667;SDS011;8447;52.630;4.734;2023-03-01T01:52:41;8.33;;;6.23;;
16667;SDS011;8447;52.630;4.734;2023-03-01T01:55:08;7.87;;;5.70;;
16667;SDS011;8447;52.630;4.734;2023-03-01T01:57:37;7.20;;;5.63;;
16667;SDS011;8447;52.630;4.734;2023-03-01T02:00:05;7.00;;;5.60;;
16667;SDS011;8447;52.630;4.734;2023-03-01T02:02:32;7.13;;;5.60;;
16667;SDS011;8447;52.630;4.734;2023-03-01T02:05:01;5.77;;;5.17;;
16667;SDS011;8447;52.630;4.734;2023-03-01T02:07:31;6.90;;;5.87;;
16667;SDS011;8447;52.630;4.734;2023-03-01T02:09:57;6.70;;;6.00;;
16667;SDS011;8447;52.630;4.734;2023-03-01T02:12:24;7.43;;;5.83;;
16667;SDS011;8447;52.630;4.734;2023-03-01T02:14:51;7.17;;;5.20;;
16667;SDS011;8447;52.630;4.734;2023-03-01T02:17:18;6.73;;;5.80;;
16667;SDS011;8447;52.630;4.734;2023-03-01T02:19:47;6.83;;;5.77;;
16667;SDS011;8447;52.630;4.734;2023-03-01T02:22:18;7.40;;;5.90;;
16667;SDS011;8447;52.630;4.734;2023-03-01T02:24:50;6.43;;;5.43;;
16667;SDS011;8447;52.630;4.734;2023-03-01T02:27:22;9.33;;;5.90;;
16667;SDS011;8447;52.630;4.734;2023-03-01T02:29:51;6.20;;;5.60;;
16667;SDS011;8447;52.630;4.734;2023-03-01T02:32:18;8.53;;;5.73;;
16667;SDS011;8447;52.630;4.734;2023-03-01T02:34:49;8.37;;;6.30;;
16667;SDS011;8447;52.630;4.734;2023-03-01T02:37:16;7.93;;;5.60;;
16667;SDS011;8447;52.630;4.734;2023-03-01T02:39:50;6.20;;;5.17;;
16667;SDS011;8447;52.630;4.734;2023-03-01T02:42:18;7.10;;;5.00;;
16667;SDS011;8447;52.630;4.734;2023-03-01T02:44:48;6.73;;;4.97;;
16667;SDS011;8447;52.630;4.734;2023-03-01T02:47:16;6.30;;;5.60;;
16667;SDS011;8447;52.630;4.734;2023-03-01T02:49:42;6.73;;;4.77;;
16667;SDS011;8447;52.630;4.734;2023-03-01T02:54:51;5.90;;;4.87;;
16667;SDS011;8447;52.630;4.734;2023-03-01T02:57:20;5.80;;;4.83;;
16667;SDS011;8447;52.630;4.734;2023-03-01T02:59:47;5.87;;;4.63;;
16667;SDS011;8447;52.630;4.734;2023-03-01T03:02:22;7.87;;;5.10;;
16667;SDS011;8447;52.630;4.734;2023-03-01T03:05:01;7.27;;;5.03;;
16667;SDS011;8447;52.630;4.734;2023-03-01T03:07:28;5.17;;;4.40;;
16667;SDS011;8447;52.630;4.734;2023-03-01T03:09:54;4.93;;;4.43;;
16667;SDS011;8447;52.630;4.734;2023-03-01T03:12:21;7.20;;;5.37;;
16667;SDS011;8447;52.630;4.734;2023-03-01T03:14:47;5.33;;;4.30;;
16667;SDS011;8447;52.630;4.734;2023-03-01T03:17:14;5.70;;;4.67;;
16667;SDS011;8447;52.630;4.734;2023-03-01T03:19:41;7.17;;;4.40;;
16667;SDS011;8447;52.630;4.734;2023-03-01T03:22:10;6.77;;;4.57;;
16667;SDS011;8447;52.630;4.734;2023-03-01T03:24:36;6.10;;;4.90;;
16667;SDS011;8447;52.630;4.734;2023-03-01T03:27:03;5.97;;;4.80;;
16667;SDS011;8447;52.630;4.734;2023-03-01T03:29:30;5.73;;;5.17;;
16667;SDS011;8447;52.630;4.734;2023-03-01T03:31:56;6.90;;;5.47;;
16667;SDS011;8447;52.630;4.734;2023-03-01T03:34:22;6.90;;;5.73;;
16667;SDS011;8447;52.630;4.734;2023-03-01T03:36:53;7.30;;;5.70;;
16667;SDS011;8447;52.630;4.734;2023-03-01T03:39:21;6.00;;;5.10;;
16667;SDS011;8447;52.630;4.734;2023-03-01T03:41:48;6.43;;;5.03;;
16667;SDS011;8447;52.630;4.734;2023-03-01T03:44:14;5.83;;;4.83;;
16667;SDS011;8447;52.630;4.734;2023-03-01T03:46:40;6.47;;;5.47;;
16667;SDS011;8447;52.630;4.734;2023-03-01T03:49:07;10.00;;;6.03;;
16667;SDS011;8447;52.630;4.734;2023-03-01T03:51:33;7.33;;;5.60;;
16667;SDS011;8447;52.630;4.734;2023-03-01T03:54:01;7.77;;;5.57;;
16667;SDS011;8447;52.630;4.734;2023-03-01T03:56:27;8.53;;;6.10;;
16667;SDS011;8447;52.630;4.734;2023-03-01T03:58:54;6.90;;;5.50;;
16667;SDS011;8447;52.630;4.734;2023-03-01T04:01:20;6.23;;;5.03;;
16667;SDS011;8447;52.630;4.734;2023-03-01T04:03:47;7.17;;;4.67;;
16667;SDS011;8447;52.630;4.734;2023-03-01T04:06:14;6.33;;;4.90;;
16667;SDS011;8447;52.630;4.734;2023-03-01T04:08:40;5.93;;;5.23;;
16667;SDS011;8447;52.630;4.734;2023-03-01T04:11:08;7.53;;;4.97;;
16667;SDS011;8447;52.630;4.734;2023-03-01T04:13:51;7.63;;;5.20;;
16667;SDS011;8447;52.630;4.734;2023-03-01T04:16:18;6.77;;;5.40;;
16667;SDS011;8447;52.630;4.734;2023-03-01T04:18:45;6.53;;;5.17;;
16667;SDS011;8447;52.630;4.734;2023-03-01T04:21:12;6.00;;;4.93;;
16667;SDS011;8447;52.630;4.734;2023-03-01T04:23:38;5.30;;;4.60;;
16667;SDS011;8447;52.630;4.734;2023-03-01T04:26:05;6.90;;;5.73;;
16667;SDS011;8447;52.630;4.734;2023-03-01T04:28:34;6.47;;;5.47;;
16667;SDS011;8447;52.630;4.734;2023-03-01T04:31:02;7.83;;;5.83;;
16667;SDS011;8447;52.630;4.734;2023-03-01T04:33:37;7.40;;;5.57;;
16667;SDS011;8447;52.630;4.734;2023-03-01T04:36:04;6.73;;;5.50;;
16667;SDS011;8447;52.630;4.734;2023-03-01T04:38:33;7.67;;;6.37;;
16667;SDS011;8447;52.630;4.734;2023-03-01T04:41:00;8.63;;;6.47;;
16667;SDS011;8447;52.630;4.734;2023-03-01T04:43:28;7.07;;;5.70;;
16667;SDS011;8447;52.630;4.734;2023-03-01T04:45:56;7.70;;;6.17;;
16667;SDS011;8447;52.630;4.734;2023-03-01T04:48:27;9.20;;;6.83;;
16667;SDS011;8447;52.630;4.734;2023-03-01T04:50:54;10.57;;;7.33;;
16667;SDS011;8447;52.630;4.734;2023-03-01T04:53:20;6.93;;;5.37;;
16667;SDS011;8447;52.630;4.734;2023-03-01T04:55:46;7.03;;;5.30;;
16667;SDS011;8447;52.630;4.734;2023-03-01T04:58:13;10.27;;;7.30;;
16667;SDS011;8447;52.630;4.734;2023-03-01T05:00:39;9.47;;;6.63;;
16667;SDS011;8447;52.630;4.734;2023-03-01T05:03:07;7.17;;;5.87;;
16667;SDS011;8447;52.630;4.734;2023-03-01T05:05:34;7.73;;;6.10;;
16667;SDS011;8447;52.630;4.734;2023-03-01T05:08:02;8.43;;;6.63;;
16667;SDS011;8447;52.630;4.734;2023-03-01T05:10:30;7.17;;;6.27;;
16667;SDS011;8447;52.630;4.734;2023-03-01T05:12:57;10.63;;;7.40;;
16667;SDS011;8447;52.630;4.734;2023-03-01T05:15:24;8.67;;;6.93;;
16667;SDS011;8447;52.630;4.734;2023-03-01T05:17:51;10.27;;;6.80;;
16667;SDS011;8447;52.630;4.734;2023-03-01T05:20:19;7.97;;;6.77;;
16667;SDS011;8447;52.630;4.734;2023-03-01T05:22:47;8.27;;;6.70;;
16667;SDS011;8447;52.630;4.734;2023-03-01T05:25:14;7.97;;;7.13;;
16667;SDS011;8447;52.630;4.734;2023-03-01T05:27:40;8.73;;;6.67;;
16667;SDS011;8447;52.630;4.734;2023-03-01T05:30:07;8.10;;;6.60;;
16667;SDS011;8447;52.630;4.734;2023-03-01T05:32:42;9.60;;;6.43;;
16667;SDS011;8447;52.630;4.734;2023-03-01T05:35:09;9.60;;;6.00;;
16667;SDS011;8447;52.630;4.734;2023-03-01T05:37:39;8.60;;;6.10;;
16667;SDS011;8447;52.630;4.734;2023-03-01T05:40:07;9.33;;;5.77;;
16667;SDS011;8447;52.630;4.734;2023-03-01T05:42:40;6.23;;;5.10;;
16667;SDS011;8447;52.630;4.734;2023-03-01T05:45:07;8.17;;;6.10;;
16667;SDS011;8447;52.630;4.734;2023-03-01T05:47:34;8.03;;;5.77;;
16667;SDS011;8447;52.630;4.734;2023-03-01T05:50:01;6.37;;;5.67;;
16667;SDS011;8447;52.630;4.734;2023-03-01T05:52:27;7.60;;;5.23;;
16667;SDS011;8447;52.630;4.734;2023-03-01T05:54:55;5.97;;;5.37;;
16667;SDS011;8447;52.630;4.734;2023-03-01T05:57:21;6.47;;;4.53;;
16667;SDS011;8447;52.630;4.734;2023-03-01T05:59:48;6.50;;;5.33;;
16667;SDS011;8447;52.630;4.734;2023-03-01T06:02:14;5.37;;;4.40;;
16667;SDS011;8447;52.630;4.734;2023-03-01T06:04:40;5.97;;;5.10;;
16667;SDS011;8447;52.630;4.734;2023-03-01T06:07:07;5.63;;;4.77;;
16667;SDS011;8447;52.630;4.734;2023-03-01T06:09:33;8.23;;;5.43;;
16667;SDS011;8447;52.630;4.734;2023-03-01T06:12:01;6.17;;;5.17;;
16667;SDS011;8447;52.630;4.734;2023-03-01T06:14:27;9.30;;;5.77;;
16667;SDS011;8447;52.630;4.734;2023-03-01T06:16:54;10.13;;;6.43;;
16667;SDS011;8447;52.630;4.734;2023-03-01T06:19:20;8.60;;;6.37;;
16667;SDS011;8447;52.630;4.734;2023-03-01T06:21:46;10.63;;;7.20;;
16667;SDS011;8447;52.630;4.734;2023-03-01T06:24:13;9.80;;;7.07;;
16667;SDS011;8447;52.630;4.734;2023-03-01T06:26:39;10.40;;;6.83;;
16667;SDS011;8447;52.630;4.734;2023-03-01T06:29:07;9.33;;;6.17;;
16667;SDS011;8447;52.630;4.734;2023-03-01T06:31:33;8.23;;;6.60;;
16667;SDS011;8447;52.630;4.734;2023-03-01T06:34:00;12.47;;;7.17;;
16667;SDS011;8447;52.630;4.734;2023-03-01T06:36:26;8.23;;;6.53;;
16667;SDS011;8447;52.630;4.734;2023-03-01T06:38:53;10.37;;;7.57;;
16667;SDS011;8447;52.630;4.734;2023-03-01T06:41:19;8.90;;;6.53;;
16667;SDS011;8447;52.630;4.734;2023-03-01T06:43:45;10.50;;;6.50;;
16667;SDS011;8447;52.630;4.734;2023-03-01T06:46:13;12.60;;;6.93;;
16667;SDS011;8447;52.630;4.734;2023-03-01T06:48:39;8.40;;;6.70;;
16667;SDS011;8447;52.630;4.734;2023-03-01T06:51:06;8.27;;;6.87;;
16667;SDS011;8447;52.630;4.734;2023-03-01T06:53:32;12.07;;;7.40;;
16667;SDS011;8447;52.630;4.734;2023-03-01T06:55:59;8.60;;;6.77;;
16667;SDS011;8447;52.630;4.734;2023-03-01T06:58:25;10.90;;;7.77;;
16667;SDS011;8447;52.630;4.734;2023-03-01T07:00:51;9.70;;;6.57;;
16667;SDS011;8447;52.630;4.734;2023-03-01T07:03:19;10.53;;;7.30;;
16667;SDS011;8447;52.630;4.734;2023-03-01T07:05:48;9.77;;;6.90;;
16667;SDS011;8447;52.630;4.734;2023-03-01T07:08:14;9.00;;;7.03;;
16667;SDS011;8447;52.630;4.734;2023-03-01T07:10:40;9.63;;;7.23;;
16667;SDS011;8447;52.630;4.734;2023-03-01T07:13:07;9.50;;;6.27;;
16667;SDS011;8447;52.630;4.734;2023-03-01T07:15:34;8.33;;;6.70;;
16667;SDS011;8447;52.630;4.734;2023-03-01T07:18:00;9.67;;;7.57;;
16667;SDS011;8447;52.630;4.734;2023-03-01T07:20:28;8.10;;;6.37;;
16667;SDS011;8447;52.630;4.734;2023-03-01T07:22:54;10.07;;;7.00;;
16667;SDS011;8447;52.630;4.734;2023-03-01T07:25:21;7.27;;;6.37;;
16667;SDS011;8447;52.630;4.734;2023-03-01T07:27:48;9.27;;;7.80;;
16667;SDS011;8447;52.630;4.734;2023-03-01T07:30:15;8.37;;;6.60;;
16667;SDS011;8447;52.630;4.734;2023-03-01T07:32:41;9.17;;;6.83;;
16667;SDS011;8447;52.630;4.734;2023-03-01T07:35:08;9.80;;;6.87;;
16667;SDS011;8447;52.630;4.734;2023-03-01T07:37:36;7.97;;;6.90;;
16667;SDS011;8447;52.630;4.734;2023-03-01T07:40:02;9.80;;;7.20;;
16667;SDS011;8447;52.630;4.734;2023-03-01T07:42:29;9.20;;;6.77;;
16667;SDS011;8447;52.630;4.734;2023-03-01T07:44:55;8.40;;;6.53;;
16667;SDS011;8447;52.630;4.734;2023-03-01T07:47:21;9.87;;;8.00;;
16667;SDS011;8447;52.630;4.734;2023-03-01T07:49:48;10.53;;;7.90;;
16667;SDS011;8447;52.630;4.734;2023-03-01T07:52:14;9.07;;;7.40;;
16667;SDS011;8447;52.630;4.734;2023-03-01T07:54:43;11.23;;;8.10;;
16667;SDS011;8447;52.630;4.734;2023-03-01T07:57:10;9.87;;;7.63;;
16667;SDS011;8447;52.630;4.734;2023-03-01T07:59:37;9.53;;;7.30;;
16667;SDS011;8447;52.630;4.734;2023-03-01T08:02:03;11.87;;;8.83;;
16667;SDS011;8447;52.630;4.734;2023-03-01T08:04:30;11.23;;;7.57;;
16667;SDS011;8447;52.630;4.734;2023-03-01T08:06:56;12.83;;;9.00;;
16667;SDS011;8447;52.630;4.734;2023-03-01T08:09:22;11.87;;;8.60;;
16667;SDS011;8447;52.630;4.734;2023-03-01T08:11:51;13.53;;;8.57;;
16667;SDS011;8447;52.630;4.734;2023-03-01T08:14:19;12.23;;;8.20;;
16667;SDS011;8447;52.630;4.734;2023-03-01T08:16:48;11.60;;;8.97;;
16667;SDS011;8447;52.630;4.734;2023-03-01T08:19:14;9.77;;;8.77;;
16667;SDS011;8447;52.630;4.734;2023-03-01T08:21:41;10.73;;;8.47;;
16667;SDS011;8447;52.630;4.734;2023-03-01T08:24:07;10.30;;;8.57;;
16667;SDS011;8447;52.630;4.734;2023-03-01T08:26:35;11.67;;;8.63;;
16667;SDS011;8447;52.630;4.734;2023-03-01T08:29:03;11.37;;;8.77;;
16667;SDS011;8447;52.630;4.734;2023-03-01T08:31:30;9.17;;;8.27;;
16667;SDS011;8447;52.630;4.734;2023-03-01T08:33:58;9.93;;;8.70;;
16667;SDS011;8447;52.630;4.734;2023-03-01T08:36:25;9.80;;;7.97;;
16667;SDS011;8447;52.630;4.734;2023-03-01T08:38:51;9.20;;;7.57;;
16667;SDS011;8447;52.630;4.734;2023-03-01T08:41:18;10.73;;;7.80;;
16667;SDS011;8447;52.630;4.734;2023-03-01T08:43:44;8.70;;;7.80;;
16667;SDS011;8447;52.630;4.734;2023-03-01T08:46:12;11.03;;;7.60;;
16667;SDS011;8447;52.630;4.734;2023-03-01T08:48:39;10.00;;;6.90;;
16667;SDS011;8447;52.630;4.734;2023-03-01T08:51:08;8.77;;;7.27;;
16667;SDS011;8447;52.630;4.734;2023-03-01T08:53:35;7.87;;;7.07;;
16667;SDS011;8447;52.630;4.734;2023-03-01T08:56:01;9.77;;;7.80;;
16667;SDS011;8447;52.630;4.734;2023-03-01T08:58:28;10.00;;;7.27;;
16667;SDS011;8447;52.630;4.734;2023-03-01T09:00:54;9.67;;;8.13;;
16667;SDS011;8447;52.630;4.734;2023-03-01T09:03:22;11.87;;;8.70;;
16667;SDS011;8447;52.630;4.734;2023-03-01T09:05:49;12.37;;;7.83;;
16667;SDS011;8447;52.630;4.734;2023-03-01T09:08:16;10.00;;;8.60;;
16667;SDS011;8447;52.630;4.734;2023-03-01T09:10:42;10.27;;;8.53;;
16667;SDS011;8447;52.630;4.734;2023-03-01T09:13:08;14.00;;;9.83;;
16667;SDS011;8447;52.630;4.734;2023-03-01T09:15:36;11.57;;;9.27;;
16667;SDS011;8447;52.630;4.734;2023-03-01T09:18:02;9.33;;;8.30;;
16667;SDS011;8447;52.630;4.734;2023-03-01T09:20:31;11.07;;;8.70;;
16667;SDS011;8447;52.630;4.734;2023-03-01T09:22:58;9.53;;;8.33;;
16667;SDS011;8447;52.630;4.734;2023-03-01T09:25:24;11.10;;;7.80;;
16667;SDS011;8447;52.630;4.734;2023-03-01T09:27:50;10.80;;;8.03;;
16667;SDS011;8447;52.630;4.734;2023-03-01T09:30:17;10.60;;;8.07;;
16667;SDS011;8447;52.630;4.734;2023-03-01T09:32:43;10.80;;;7.83;;
16667;SDS011;8447;52.630;4.734;2023-03-01T09:35:10;9.07;;;7.23;;
16667;SDS011;8447;52.630;4.734;2023-03-01T09:37:37;9.00;;;7.33;;
16667;SDS011;8447;52.630;4.734;2023-03-01T09:40:05;10.70;;;7.13;;
16667;SDS011;8447;52.630;4.734;2023-03-01T09:42:32;9.63;;;7.10;;
16667;SDS011;8447;52.630;4.734;2023-03-01T09:45:00;12.23;;;7.80;;
16667;SDS011;8447;52.630;4.734;2023-03-01T09:47:28;8.57;;;7.67;;
16667;SDS011;8447;52.630;4.734;2023-03-01T09:50:00;8.33;;;7.43;;
16667;SDS011;8447;52.630;4.734;2023-03-01T09:52:29;9.77;;;7.63;;
16667;SDS011;8447;52.630;4.734;2023-03-01T09:55:01;10.47;;;7.47;;
16667;SDS011;8447;52.630;4.734;2023-03-01T09:57:29;8.40;;;7.00;;
16667;SDS011;8447;52.630;4.734;2023-03-01T10:00:00;8.13;;;7.33;;
16667;SDS011;8447;52.630;4.734;2023-03-01T10:02:30;7.77;;;6.97;;
16667;SDS011;8447;52.630;4.734;2023-03-01T10:05:02;7.00;;;6.30;;
16667;SDS011;8447;52.630;4.734;2023-03-01T10:07:32;7.50;;;6.80;;
16667;SDS011;8447;52.630;4.734;2023-03-01T10:10:06;7.37;;;6.67;;
16667;SDS011;8447;52.630;4.734;2023-03-01T10:12:34;7.80;;;6.40;;
16667;SDS011;8447;52.630;4.734;2023-03-01T10:15:02;9.13;;;6.60;;
16667;SDS011;8447;52.630;4.734;2023-03-01T10:17:30;7.73;;;6.40;;
16667;SDS011;8447;52.630;4.734;2023-03-01T10:20:05;7.07;;;6.20;;
16667;SDS011;8447;52.630;4.734;2023-03-01T10:22:36;8.03;;;6.87;;
16667;SDS011;8447;52.630;4.734;2023-03-01T10:25:03;8.13;;;7.33;;
16667;SDS011;8447;52.630;4.734;2023-03-01T10:27:33;8.07;;;6.83;;
16667;SDS011;8447;52.630;4.734;2023-03-01T10:30:03;7.80;;;6.10;;
16667;SDS011;8447;52.630;4.734;2023-03-01T10:32:32;10.90;;;7.73;;
16667;SDS011;8447;52.630;4.734;2023-03-01T10:34:58;9.77;;;6.67;;
16667;SDS011;8447;52.630;4.734;2023-03-01T10:37:24;8.47;;;6.50;;
16667;SDS011;8447;52.630;4.734;2023-03-01T10:39:58;8.03;;;7.00;;
16667;SDS011;8447;52.630;4.734;2023-03-01T10:42:31;7.70;;;6.23;;
16667;SDS011;8447;52.630;4.734;2023-03-01T10:44:58;8.73;;;7.40;;
16667;SDS011;8447;52.630;4.734;2023-03-01T10:47:25;8.07;;;6.97;;
16667;SDS011;8447;52.630;4.734;2023-03-01T10:49:53;8.73;;;6.47;;
16667;SDS011;8447;52.630;4.734;2023-03-01T10:52:20;6.90;;;6.13;;
16667;SDS011;8447;52.630;4.734;2023-03-01T10:54:51;8.47;;;6.20;;
16667;SDS011;8447;52.630;4.734;2023-03-01T10:57:24;8.53;;;6.63;;
16667;SDS011;8447;52.630;4.734;2023-03-01T11:00:02;6.90;;;5.90;;
16667;SDS011;8447;52.630;4.734;2023-03-01T11:02:37;7.93;;;6.10;;
16667;SDS011;8447;52.630;4.734;2023-03-01T11:05:13;6.80;;;6.10;;
16667;SDS011;8447;52.630;4.734;2023-03-01T11:07:52;7.60;;;6.00;;
16667;SDS011;8447;52.630;4.734;2023-03-01T11:10:19;6.13;;;5.53;;
16667;SDS011;8447;52.630;4.734;2023-03-01T11:12:46;7.30;;;5.40;;
16667;SDS011;8447;52.630;4.734;2023-03-01T11:15:24;7.43;;;5.00;;
16667;SDS011;8447;52.630;4.734;2023-03-01T11:17:51;7.03;;;5.03;;
16667;SDS011;8447;52.630;4.734;2023-03-01T11:20:20;4.70;;;4.30;;
16667;SDS011;8447;52.630;4.734;2023-03-01T11:22:50;5.30;;;4.80;;
16667;SDS011;8447;52.630;4.734;2023-03-01T11:25:19;5.63;;;4.80;;
16667;SDS011;8447;52.630;4.734;2023-03-01T11:27:46;7.83;;;5.07;;
16667;SDS011;8447;52.630;4.734;2023-03-01T11:30:18;5.27;;;4.77;;
16667;SDS011;8447;52.630;4.734;2023-03-01T11:32:50;5.90;;;4.83;;
16667;SDS011;8447;52.630;4.734;2023-03-01T11:35:19;5.87;;;4.90;;
16667;SDS011;8447;52.630;4.734;2023-03-01T11:37:51;6.83;;;5.10;;
16667;SDS011;8447;52.630;4.734;2023-03-01T11:40:21;5.10;;;4.57;;
16667;SDS011;8447;52.630;4.734;2023-03-01T11:42:54;7.33;;;4.60;;
16667;SDS011;8447;52.630;4.734;2023-03-01T11:45:23;4.90;;;4.50;;
16667;SDS011;8447;52.630;4.734;2023-03-01T11:47:55;6.87;;;5.10;;
16667;SDS011;8447;52.630;4.734;2023-03-01T11:50:26;6.90;;;5.30;;
16667;SDS011;8447;52.630;4.734;2023-03-01T11:52:57;5.40;;;4.90;;
16667;SDS011;8447;52.630;4.734;2023-03-01T11:55:29;5.87;;;4.60;;
16667;SDS011;8447;52.630;4.734;2023-03-01T12:00:47;7.13;;;5.07;;
16667;SDS011;8447;52.630;4.734;2023-03-01T12:03:25;6.10;;;5.47;;
16667;SDS011;8447;52.630;4.734;2023-03-01T12:06:00;5.90;;;4.70;;
16667;SDS011;8447;52.630;4.734;2023-03-01T12:08:30;7.60;;;5.00;;
16667;SDS011;8447;52.630;4.734;2023-03-01T12:11:01;6.00;;;4.90;;
16667;SDS011;8447;52.630;4.734;2023-03-01T12:13:41;6.10;;;5.53;;
16667;SDS011;8447;52.630;4.734;2023-03-01T12:16:15;6.20;;;5.67;;
16667;SDS011;8447;52.630;4.734;2023-03-01T12:18:51;5.60;;;5.00;;
16667;SDS011;8447;52.630;4.734;2023-03-01T12:21:21;7.33;;;6.13;;
16667;SDS011;8447;52.630;4.734;2023-03-01T12:26:34;7.37;;;6.20;;
16667;SDS011;8447;52.630;4.734;2023-03-01T12:29:02;7.03;;;6.27;;
16667;SDS011;8447;52.630;4.734;2023-03-01T12:31:35;6.53;;;5.93;;
16667;SDS011;8447;52.630;4.734;2023-03-01T12:34:09;6.03;;;5.43;;
16667;SDS011;8447;52.630;4.734;2023-03-01T12:36:55;7.97;;;5.50;;
16667;SDS011;8447;52.630;4.734;2023-03-01T12:39:32;6.73;;;6.10;;
16667;SDS011;8447;52.630;4.734;2023-03-01T12:42:04;6.57;;;5.97;;
16667;SDS011;8447;52.630;4.734;2023-03-01T12:44:40;7.43;;;6.07;;
16667;SDS011;8447;52.630;4.734;2023-03-01T12:49:54;6.83;;;6.20;;
16667;SDS011;8447;52.630;4.734;2023-03-01T12:52:22;7.50;;;5.93;;
16667;SDS011;8447;52.630;4.734;2023-03-01T12:54:50;5.87;;;5.27;;
16667;SDS011;8447;52.630;4.734;2023-03-01T12:57:18;5.83;;;5.33;;
16667;SDS011;8447;52.630;4.734;2023-03-01T12:59:51;6.43;;;5.50;;
16667;SDS011;8447;52.630;4.734;2023-03-01T13:02:26;7.17;;;5.50;;
16667;SDS011;8447;52.630;4.734;2023-03-01T13:05:05;5.47;;;4.97;;
16667;SDS011;8447;52.630;4.734;2023-03-01T13:07:34;6.83;;;5.57;;
16667;SDS011;8447;52.630;4.734;2023-03-01T13:10:16;5.93;;;4.80;;
16667;SDS011;8447;52.630;4.734;2023-03-01T13:12:46;6.33;;;5.10;;
16667;SDS011;8447;52.630;4.734;2023-03-01T13:15:25;6.63;;;5.07;;
16667;SDS011;8447;52.630;4.734;2023-03-01T13:17:52;5.90;;;5.03;;
16667;SDS011;8447;52.630;4.734;2023-03-01T13:20:21;9.47;;;5.00;;
16667;SDS011;8447;52.630;4.734;2023-03-01T13:22:49;5.30;;;4.53;;
16667;SDS011;8447;52.630;4.734;2023-03-01T13:25:26;7.90;;;6.13;;
16667;SDS011;8447;52.630;4.734;2023-03-01T13:27:53;5.83;;;5.23;;
16667;SDS011;8447;52.630;4.734;2023-03-01T13:30:40;7.73;;;5.70;;
16667;SDS011;8447;52.630;4.734;2023-03-01T13:35:53;8.53;;;5.80;;
16667;SDS011;8447;52.630;4.734;2023-03-01T13:38:36;5.90;;;5.30;;
16667;SDS011;8447;52.630;4.734;2023-03-01T13:41:03;7.10;;;5.80;;
16667;SDS011;8447;52.630;4.734;2023-03-01T13:43:31;6.50;;;5.77;;
16667;SDS011;8447;52.630;4.734;2023-03-01T13:45:58;7.43;;;5.87;;
16667;SDS011;8447;52.630;4.734;2023-03-01T13:48:25;9.27;;;6.07;;
16667;SDS011;8447;52.630;4.734;2023-03-01T13:50:54;6.90;;;6.20;;
16667;SDS011;8447;52.630;4.734;2023-03-01T13:53:22;8.03;;;6.33;;
16667;SDS011;8447;52.630;4.734;2023-03-01T13:55:50;7.70;;;6.67;;
16667;SDS011;8447;52.630;4.734;2023-03-01T13:58:21;7.00;;;6.30;;
16667;SDS011;8447;52.630;4.734;2023-03-01T14:00:54;11.53;;;6.90;;
16667;SDS011;8447;52.630;4.734;2023-03-01T14:03:21;6.97;;;5.97;;
16667;SDS011;8447;52.630;4.734;2023-03-01T14:05:58;6.97;;;5.80;;
16667;SDS011;8447;52.630;4.734;2023-03-01T14:08:26;8.27;;;6.67;;
16667;SDS011;8447;52.630;4.734;2023-03-01T14:10:54;6.77;;;5.73;;
16667;SDS011;8447;52.630;4.734;2023-03-01T14:13:29;9.20;;;6.30;;
16667;SDS011;8447;52.630;4.734;2023-03-01T14:16:04;7.93;;;6.50;;
16667;SDS011;8447;52.630;4.734;2023-03-01T14:18:34;8.13;;;6.47;;
16667;SDS011;8447;52.630;4.734;2023-03-01T14:21:07;8.77;;;6.43;;
16667;SDS011;8447;52.630;4.734;2023-03-01T14:23:34;8.57;;;7.53;;
16667;SDS011;8447;52.630;4.734;2023-03-01T14:26:04;9.80;;;7.83;;
16667;SDS011;8447;52.630;4.734;2023-03-01T14:28:31;9.60;;;6.60;;
16667;SDS011;8447;52.630;4.734;2023-03-01T14:30:59;10.77;;;7.53;;
16667;SDS011;8447;52.630;4.734;2023-03-01T14:33:27;9.43;;;7.80;;
16667;SDS011;8447;52.630;4.734;2023-03-01T14:35:56;9.20;;;6.23;;
16667;SDS011;8447;52.630;4.734;2023-03-01T14:38:28;10.73;;;7.83;;
16667;SDS011;8447;52.630;4.734;2023-03-01T14:40:55;7.67;;;6.80;;
16667;SDS011;8447;52.630;4.734;2023-03-01T14:43:23;8.93;;;7.03;;
16667;SDS011;8447;52.630;4.734;2023-03-01T14:45:50;9.73;;;6.63;;
16667;SDS011;8447;52.630;4.734;2023-03-01T14:48:17;9.17;;;7.30;;
16667;SDS011;8447;52.630;4.734;2023-03-01T14:50:44;9.43;;;7.17;;
16667;SDS011;8447;52.630;4.734;2023-03-01T14:53:14;8.23;;;7.40;;
16667;SDS011;8447;52.630;4.734;2023-03-01T14:55:44;7.73;;;6.70;;
16667;SDS011;8447;52.630;4.734;2023-03-01T14:58:12;7.70;;;6.60;;
16667;SDS011;8447;52.630;4.734;2023-03-01T15:00:39;8.87;;;6.57;;
16667;SDS011;8447;52.630;4.734;2023-03-01T15:03:11;7.67;;;6.27;;
16667;SDS011;8447;52.630;4.734;2023-03-01T15:05:39;9.77;;;7.17;;
16667;SDS011;8447;52.630;4.734;2023-03-01T15:08:05;10.83;;;7.17;;
16667;SDS011;8447;52.630;4.734;2023-03-01T15:10:32;8.13;;;6.77;;
16667;SDS011;8447;52.630;4.734;2023-03-01T15:13:10;8.40;;;6.10;;
16667;SDS011;8447;52.630;4.734;2023-03-01T15:15:41;6.70;;;5.87;;
16667;SDS011;8447;52.630;4.734;2023-03-01T15:18:14;8.97;;;6.13;;
16667;SDS011;8447;52.630;4.734;2023-03-01T15:20:41;8.17;;;6.70;;
16667;SDS011;8447;52.630;4.734;2023-03-01T15:23:16;10.10;;;7.37;;
16667;SDS011;8447;52.630;4.734;2023-03-01T15:25:44;9.67;;;7.00;;